createdAt,value
2022-12-29T00:00:09.520Z,99858.59
2022-12-29T00:02:40.964Z,99859.47
2022-12-29T00:05:09.840Z,99862.31
2022-12-29T00:07:38.185Z,99873.03
2022-12-29T00:10:06.851Z,99863.09
2022-12-29T00:12:53.682Z,99859.81
2022-12-29T00:15:40.424Z,99855.41
2022-12-29T00:18:09.295Z,99861.06
2022-12-29T00:20:57.299Z,99850.69
2022-12-29T00:23:44.650Z,99851.50
2022-12-29T00:26:34.971Z,99854.63
2022-12-29T00:29:22.320Z,99866.38
2022-12-29T00:32:09.306Z,99854.47
2022-12-29T00:34:56.568Z,99851.69
2022-12-29T00:37:44.568Z,99849.16
2022-12-29T00:40:33.334Z,99841.34
2022-12-29T00:43:20.479Z,99845.66
2022-12-29T00:45:48.897Z,99842.16
2022-12-29T00:48:36.910Z,99844.78
2022-12-29T00:51:05.488Z,99853.78
2022-12-29T00:53:36.580Z,99854.13
2022-12-29T00:56:04.589Z,99854.22
2022-12-29T00:58:32.908Z,99853.34
2022-12-29T01:01:06.235Z,99854.34
2022-12-29T01:03:37.898Z,99852.69
2022-12-29T01:06:07.891Z,99857.97
2022-12-29T01:08:36.972Z,99849.63
2022-12-29T01:11:10.540Z,99849.09
2022-12-29T01:13:39.818Z,99848.06
2022-12-29T01:16:08.459Z,99848.41
2022-12-29T01:18:36.601Z,99850.84
2022-12-29T01:21:07.152Z,99847.81
2022-12-29T01:23:35.179Z,99854.94
2022-12-29T01:26:14.316Z,99851.06
2022-12-29T01:28:43.180Z,99842.81
2022-12-29T01:31:12.897Z,99842.91
2022-12-29T01:33:41.070Z,99850.56
2022-12-29T01:36:11.702Z,99852.84
2022-12-29T01:38:40.270Z,99849.22
2022-12-29T01:41:09.520Z,99850.84
2022-12-29T01:43:49.678Z,99848.22
2022-12-29T01:46:28.128Z,99853.59
2022-12-29T01:49:32.008Z,99848.16
2022-12-29T01:52:07.669Z,99846.53
2022-12-29T01:54:40.271Z,99843.19
2022-12-29T01:57:13.207Z,99840.87
2022-12-29T01:59:48.675Z,99832.59
2022-12-29T02:02:17.161Z,99832.19
2022-12-29T02:04:47.018Z,99837.41
2022-12-29T02:07:21.600Z,99834.19
2022-12-29T02:09:52.498Z,99825.25
2022-12-29T02:12:21.905Z,99820.25
2022-12-29T02:14:56.331Z,99815.56
2022-12-29T02:17:30.178Z,99815.53
2022-12-29T02:20:28.148Z,99818.03
2022-12-29T02:23:08.078Z,99804.97
2022-12-29T02:25:58.953Z,99806.88
2022-12-29T02:28:53.610Z,99803.66
2022-12-29T02:31:47.314Z,99799.03
2022-12-29T02:34:24.599Z,99795.56
2022-12-29T02:37:10.290Z,99787.47
2022-12-29T02:39:56.845Z,99782.91
2022-12-29T02:42:46.094Z,99783.84
2022-12-29T02:45:15.158Z,99783.06
2022-12-29T02:48:06.027Z,99776.56
2022-12-29T02:50:35.138Z,99777.69
2022-12-29T02:53:07.857Z,99773.94
2022-12-29T02:55:35.938Z,99771.22
2022-12-29T02:58:10.337Z,99776.19
2022-12-29T03:00:42.423Z,99782.72
2022-12-29T03:03:22.095Z,99779.94
2022-12-29T03:06:07.946Z,99773.37
2022-12-29T03:08:40.428Z,99777.56
2022-12-29T03:11:33.524Z,99780.97
2022-12-29T03:14:42.026Z,99779.19
2022-12-29T03:17:11.719Z,99780.75
2022-12-29T03:19:49.217Z,99774.63
2022-12-29T03:22:33.655Z,99769.06
2022-12-29T03:25:36.790Z,99759.00
2022-12-29T03:28:10.438Z,99752.66
2022-12-29T03:30:41.302Z,99759.16
2022-12-29T03:33:12.382Z,99764.22
2022-12-29T03:35:43.896Z,99757.44
2022-12-29T03:38:18.436Z,99757.09
2022-12-29T03:40:51.026Z,99760.97
2022-12-29T03:43:19.636Z,99746.41
2022-12-29T03:45:48.073Z,99746.88
2022-12-29T03:48:16.065Z,99744.91
2022-12-29T03:50:44.436Z,99746.16
2022-12-29T03:53:12.698Z,99750.66
2022-12-29T03:55:40.803Z,99752.03
2022-12-29T03:58:08.980Z,99756.84
2022-12-29T04:00:38.345Z,99752.62
2022-12-29T04:03:06.673Z,99745.09
2022-12-29T04:05:35.075Z,99757.09
2022-12-29T04:08:03.184Z,99762.50
2022-12-29T04:10:31.445Z,99766.03
2022-12-29T04:12:59.756Z,99756.69
2022-12-29T04:15:28.312Z,99753.69
2022-12-29T04:17:56.536Z,99756.25
2022-12-29T04:20:43.143Z,99756.03
2022-12-29T04:23:11.467Z,99756.38
2022-12-29T04:25:39.386Z,99748.41
2022-12-29T04:28:09.401Z,99753.25
2022-12-29T04:30:38.189Z,99763.34
2022-12-29T04:33:06.497Z,99755.56
2022-12-29T04:35:34.637Z,99755.22
2022-12-29T04:38:03.398Z,99759.34
2022-12-29T04:40:31.403Z,99747.94
2022-12-29T04:42:59.473Z,99749.97
2022-12-29T04:45:28.598Z,99749.97
2022-12-29T04:47:57.328Z,99741.50
2022-12-29T04:50:25.688Z,99747.94
2022-12-29T04:52:54.118Z,99747.47
2022-12-29T04:55:22.428Z,99753.66
2022-12-29T04:57:51.480Z,99746.38
2022-12-29T05:00:20.796Z,99744.31
2022-12-29T05:02:49.210Z,99748.84
2022-12-29T05:05:17.798Z,99747.53
2022-12-29T05:07:47.687Z,99752.25
2022-12-29T05:10:15.708Z,99746.03
2022-12-29T05:12:44.048Z,99751.19
2022-12-29T05:15:13.727Z,99742.59
2022-12-29T05:17:43.804Z,99755.66
2022-12-29T05:20:12.149Z,99741.66
2022-12-29T05:22:40.537Z,99747.09
2022-12-29T05:25:09.138Z,99756.09
2022-12-29T05:27:38.949Z,99748.22
2022-12-29T05:30:09.122Z,99748.00
2022-12-29T05:32:37.147Z,99747.34
2022-12-29T05:35:05.687Z,99742.81
2022-12-29T05:37:34.129Z,99736.53
2022-12-29T05:40:02.247Z,99746.56
2022-12-29T05:42:30.841Z,99735.84
2022-12-29T05:44:59.532Z,99735.59
2022-12-29T05:47:28.940Z,99738.44
2022-12-29T05:49:57.257Z,99738.47
2022-12-29T05:52:27.337Z,99739.25
2022-12-29T05:54:55.979Z,99722.41
2022-12-29T05:57:24.168Z,99725.00
2022-12-29T05:59:54.641Z,99718.25
2022-12-29T06:02:22.702Z,99714.66
2022-12-29T06:04:51.328Z,99715.12
2022-12-29T06:07:19.461Z,99723.53
2022-12-29T06:09:47.729Z,99724.66
2022-12-29T06:12:16.338Z,99726.84
2022-12-29T06:14:44.800Z,99727.22
2022-12-29T06:17:13.308Z,99728.19
2022-12-29T06:19:41.742Z,99726.37
2022-12-29T06:22:09.769Z,99727.63
2022-12-29T06:24:41.450Z,99723.75
2022-12-29T06:27:09.719Z,99729.06
2022-12-29T06:29:38.407Z,99734.16
2022-12-29T06:32:06.485Z,99734.13
2022-12-29T06:34:34.973Z,99736.00
2022-12-29T06:37:03.407Z,99745.97
2022-12-29T06:39:31.421Z,99739.91
2022-12-29T06:42:00.908Z,99737.03
2022-12-29T06:44:30.631Z,99738.22
2022-12-29T06:46:58.836Z,99747.47
2022-12-29T06:49:27.076Z,99745.19
2022-12-29T06:51:54.953Z,99745.94
2022-12-29T06:54:22.989Z,99749.13
2022-12-29T06:56:51.320Z,99757.06
2022-12-29T06:59:19.251Z,99758.78
2022-12-29T07:01:47.320Z,99761.97
2022-12-29T07:04:15.786Z,99762.06
2022-12-29T07:06:43.851Z,99767.66
2022-12-29T07:09:12.000Z,99759.03
2022-12-29T07:11:40.418Z,99766.47
2022-12-29T07:14:08.408Z,99763.88
2022-12-29T07:16:36.631Z,99766.69
2022-12-29T07:19:05.508Z,99770.63
2022-12-29T07:21:33.338Z,99763.53
2022-12-29T07:24:01.349Z,99758.00
2022-12-29T07:26:35.938Z,99751.19
2022-12-29T07:29:05.279Z,99755.59
2022-12-29T07:31:33.537Z,99753.72
2022-12-29T07:34:01.428Z,99758.06
2022-12-29T07:36:34.331Z,99769.69
2022-12-29T07:39:04.428Z,99768.12
2022-12-29T07:41:32.410Z,99759.94
2022-12-29T07:44:00.451Z,99767.44
2022-12-29T07:46:54.580Z,99763.25
2022-12-29T07:49:19.391Z,99757.03
2022-12-29T07:51:47.683Z,99759.22
2022-12-29T07:54:15.572Z,99760.88
2022-12-29T07:56:43.525Z,99761.72
2022-12-29T07:59:13.301Z,99771.09
2022-12-29T08:01:41.443Z,99759.81
2022-12-29T08:04:09.956Z,99763.47
2022-12-29T08:06:38.955Z,99763.34
2022-12-29T08:09:13.598Z,99766.47
2022-12-29T08:11:45.331Z,99763.38
2022-12-29T08:14:13.548Z,99763.63
2022-12-29T08:16:41.606Z,99759.88
2022-12-29T08:19:12.770Z,99758.72
2022-12-29T08:21:40.939Z,99760.41
2022-12-29T08:24:10.195Z,99755.28
2022-12-29T08:26:38.182Z,99747.34
2022-12-29T08:29:06.249Z,99750.16
2022-12-29T08:31:35.798Z,99750.06
2022-12-29T08:34:04.559Z,99742.19
2022-12-29T08:36:32.609Z,99740.66
2022-12-29T08:39:00.994Z,99743.16
2022-12-29T08:41:29.051Z,99740.19
2022-12-29T08:43:57.041Z,99745.91
2022-12-29T08:46:25.544Z,99737.97
2022-12-29T08:48:54.675Z,99745.56
2022-12-29T08:51:24.806Z,99742.97
2022-12-29T08:53:53.853Z,99752.50
2022-12-29T08:56:22.345Z,99740.00
2022-12-29T08:58:51.464Z,99750.72
2022-12-29T09:01:20.375Z,99746.28
2022-12-29T09:06:40.579Z,99741.31
2022-12-29T09:09:09.170Z,99730.97
2022-12-29T09:11:37.812Z,99733.97
2022-12-29T09:14:06.019Z,99724.78
2022-12-29T09:16:35.144Z,99721.47
2022-12-29T09:19:04.186Z,99717.88
2022-12-29T09:21:32.556Z,99717.13
2022-12-29T09:24:00.693Z,99713.38
2022-12-29T09:26:29.101Z,99712.81
2022-12-29T09:28:58.071Z,99712.88
2022-12-29T09:31:26.372Z,99707.47
2022-12-29T09:33:54.906Z,99713.22
2022-12-29T09:36:23.040Z,99704.13
2022-12-29T09:38:54.549Z,99697.59
2022-12-29T09:41:40.436Z,99686.59
2022-12-29T09:44:18.268Z,99687.97
2022-12-29T09:46:50.139Z,99677.72
2022-12-29T09:49:24.177Z,99688.84
2022-12-29T09:51:55.601Z,99689.41
2022-12-29T09:54:26.609Z,99686.16
2022-12-29T09:56:54.947Z,99688.69
2022-12-29T09:59:28.520Z,99680.13
2022-12-29T10:02:24.043Z,99680.91
2022-12-29T10:04:53.081Z,99682.72
2022-12-29T10:07:57.005Z,99675.75
2022-12-29T10:10:56.811Z,99678.28
2022-12-29T10:13:32.504Z,99674.00
2022-12-29T10:16:12.010Z,99668.81
2022-12-29T10:18:58.762Z,99672.38
2022-12-29T10:22:02.361Z,99664.53
2022-12-29T10:24:30.769Z,99656.00
2022-12-29T10:27:00.186Z,99656.16
2022-12-29T10:29:41.553Z,99646.47
2022-12-29T10:32:34.507Z,99656.25
2022-12-29T10:35:09.408Z,99646.75
2022-12-29T10:38:12.078Z,99650.53
2022-12-29T10:40:51.971Z,99646.88
2022-12-29T10:43:29.759Z,99640.41
2022-12-29T10:46:00.363Z,99642.34
2022-12-29T10:48:32.776Z,99638.72
2022-12-29T10:51:08.588Z,99642.78
2022-12-29T10:53:43.742Z,99641.50
2022-12-29T10:56:36.177Z,99639.03
2022-12-29T10:59:14.738Z,99620.69
2022-12-29T11:01:58.006Z,99634.87
2022-12-29T11:04:53.717Z,99631.66
2022-12-29T11:07:27.091Z,99621.88
2022-12-29T11:09:56.179Z,99626.47
2022-12-29T11:12:27.379Z,99641.44
2022-12-29T11:15:10.747Z,99638.22
2022-12-29T11:17:47.329Z,99627.34
2022-12-29T11:20:32.538Z,99622.56
2022-12-29T11:23:01.249Z,99624.41
2022-12-29T11:25:29.875Z,99612.94
2022-12-29T11:28:01.337Z,99614.56
2022-12-29T11:30:32.704Z,99612.34
2022-12-29T11:33:05.749Z,99605.81
2022-12-29T11:35:43.216Z,99607.41
2022-12-29T11:38:35.739Z,99597.16
2022-12-29T11:41:05.537Z,99592.78
2022-12-29T11:43:36.265Z,99587.81
2022-12-29T11:46:05.640Z,99596.50
2022-12-29T11:48:40.576Z,99576.88
2022-12-29T11:51:09.796Z,99586.12
2022-12-29T11:53:44.617Z,99591.53
2022-12-29T11:56:16.696Z,99605.22
2022-12-29T11:58:45.439Z,99602.75
2022-12-29T12:01:30.258Z,99601.34
2022-12-29T12:04:03.852Z,99599.16
2022-12-29T12:06:34.695Z,99595.41
2022-12-29T12:09:18.267Z,99606.91
2022-12-29T12:11:46.644Z,99597.16
2022-12-29T12:14:25.408Z,99585.47
2022-12-29T12:17:01.423Z,99581.63
2022-12-29T12:19:44.567Z,99581.69
2022-12-29T12:22:19.075Z,99573.56
2022-12-29T12:24:58.228Z,99579.47
2022-12-29T12:27:54.472Z,99573.97
2022-12-29T12:30:25.858Z,99575.06
2022-12-29T12:33:06.128Z,99562.91
2022-12-29T12:35:45.999Z,99553.91
2022-12-29T12:38:20.854Z,99563.03
2022-12-29T12:40:58.043Z,99563.12
2022-12-29T12:43:39.486Z,99560.59
2022-12-29T12:46:45.734Z,99551.94
2022-12-29T12:49:41.946Z,99552.00
2022-12-29T12:52:12.001Z,99551.84
2022-12-29T12:54:58.320Z,99565.47
2022-12-29T12:57:37.770Z,99558.81
2022-12-29T13:00:24.522Z,99564.75
2022-12-29T13:03:22.519Z,99556.12
2022-12-29T13:05:59.588Z,99550.06
2022-12-29T13:09:05.164Z,99555.31
2022-12-29T13:11:44.614Z,99546.66
2022-12-29T13:14:35.929Z,99556.09
2022-12-29T13:17:14.553Z,99557.88
2022-12-29T13:20:19.286Z,99549.19
2022-12-29T13:22:58.716Z,99550.97
2022-12-29T13:25:41.792Z,99558.78
2022-12-29T13:28:18.262Z,99564.56
2022-12-29T13:30:49.497Z,99577.38
2022-12-29T13:33:38.964Z,99573.84
2022-12-29T13:36:21.127Z,99573.31
2022-12-29T13:39:03.887Z,99573.03
2022-12-29T13:41:38.555Z,99579.19
2022-12-29T13:44:07.322Z,99570.44
2022-12-29T13:46:44.935Z,99576.94
2022-12-29T13:49:21.108Z,99571.34
2022-12-29T13:52:11.436Z,99574.06
2022-12-29T13:55:04.160Z,99574.84
2022-12-29T13:57:57.260Z,99575.66
2022-12-29T14:00:27.866Z,99585.53
2022-12-29T14:03:31.321Z,99577.09
2022-12-29T14:06:32.381Z,99573.69
2022-12-29T14:09:48.245Z,99575.22
2022-12-29T14:12:34.785Z,99574.41
2022-12-29T14:15:18.646Z,99583.06
2022-12-29T14:18:02.877Z,99582.84
2022-12-29T14:20:31.505Z,99572.38
2022-12-29T14:23:18.234Z,99576.97
2022-12-29T14:25:54.337Z,99575.84
2022-12-29T14:28:33.075Z,99572.47
2022-12-29T14:31:04.933Z,99570.91
2022-12-29T14:33:37.309Z,99576.41
2022-12-29T14:36:36.544Z,99585.84
2022-12-29T14:39:31.439Z,99577.41
2022-12-29T14:42:07.007Z,99581.19
2022-12-29T14:44:36.045Z,99593.03
2022-12-29T14:47:09.583Z,99588.78
2022-12-29T14:49:44.021Z,99588.38
2022-12-29T14:52:20.067Z,99585.00
2022-12-29T14:54:54.924Z,99591.56
2022-12-29T14:57:32.436Z,99587.78
2022-12-29T15:00:17.244Z,99584.31
2022-12-29T15:02:49.446Z,99580.53
2022-12-29T15:05:35.588Z,99585.22
2022-12-29T15:08:06.283Z,99593.91
2022-12-29T15:10:42.224Z,99595.06
2022-12-29T15:13:24.819Z,99592.59
2022-12-29T15:15:54.165Z,99594.78
2022-12-29T15:18:33.805Z,99594.28
2022-12-29T15:21:06.777Z,99595.06
2022-12-29T15:23:36.424Z,99598.31
2022-12-29T15:26:05.928Z,99596.22
2022-12-29T15:28:53.616Z,99605.13
2022-12-29T15:31:30.402Z,99596.16
2022-12-29T15:34:13.525Z,99594.06
2022-12-29T15:36:42.682Z,99599.47
2022-12-29T15:39:30.709Z,99593.16
2022-12-29T15:42:05.493Z,99602.34
2022-12-29T15:44:34.325Z,99601.19
2022-12-29T15:47:07.642Z,99603.09
2022-12-29T15:49:37.208Z,99599.19
2022-12-29T15:52:11.915Z,99608.19
2022-12-29T15:54:40.467Z,99605.19
2022-12-29T15:57:25.194Z,99603.34
2022-12-29T15:59:55.192Z,99600.22
2022-12-29T16:02:26.826Z,99601.12
2022-12-29T16:07:56.943Z,99588.97
2022-12-29T16:10:39.231Z,99606.56
2022-12-29T16:13:31.501Z,99606.31
2022-12-29T16:16:10.784Z,99601.94
2022-12-29T16:18:39.065Z,99600.75
2022-12-29T16:21:23.648Z,99607.13
2022-12-29T16:23:53.983Z,99600.72
2022-12-29T16:26:24.193Z,99600.22
2022-12-29T16:28:57.335Z,99597.94
2022-12-29T16:31:35.144Z,99609.41
2022-12-29T16:34:31.879Z,99607.13
2022-12-29T16:37:28.871Z,99604.66
2022-12-29T16:39:56.977Z,99600.09
2022-12-29T16:42:51.849Z,99604.37
2022-12-29T16:45:20.653Z,99610.78
2022-12-29T16:47:56.445Z,99612.53
2022-12-29T16:50:28.582Z,99624.56
2022-12-29T16:52:57.383Z,99624.72
2022-12-29T16:55:25.821Z,99613.66
2022-12-29T16:57:57.492Z,99624.09
2022-12-29T17:00:28.755Z,99629.31
2022-12-29T17:02:59.785Z,99628.03
2022-12-29T17:05:28.603Z,99632.81
2022-12-29T17:08:02.170Z,99636.94
2022-12-29T17:10:49.263Z,99633.13
2022-12-29T17:13:17.333Z,99621.50
2022-12-29T17:15:45.844Z,99613.72
2022-12-29T17:18:14.453Z,99616.69
2022-12-29T17:20:42.667Z,99618.72
2022-12-29T17:23:22.630Z,99617.22
2022-12-29T17:25:55.472Z,99613.50
2022-12-29T17:28:29.898Z,99617.72
2022-12-29T17:31:03.587Z,99610.81
2022-12-29T17:33:37.285Z,99619.50
2022-12-29T17:36:05.555Z,99619.56
2022-12-29T17:38:36.292Z,99624.75
2022-12-29T17:41:04.507Z,99625.81
2022-12-29T17:43:37.028Z,99618.63
2022-12-29T17:46:07.134Z,99608.56
2022-12-29T17:48:36.161Z,99616.31
2022-12-29T17:51:04.576Z,99614.56
2022-12-29T17:53:33.077Z,99612.44
2022-12-29T17:56:01.202Z,99592.94
2022-12-29T17:58:32.273Z,99596.66
2022-12-29T18:01:03.543Z,99598.78
2022-12-29T18:03:38.015Z,99598.34
2022-12-29T18:06:08.720Z,99594.12
2022-12-29T18:08:39.691Z,99606.94
2022-12-29T18:11:24.654Z,99608.12
2022-12-29T18:13:54.336Z,99607.03
2022-12-29T18:16:23.862Z,99606.66
2022-12-29T18:18:57.642Z,99605.06
2022-12-29T18:21:25.778Z,99597.25
2022-12-29T18:23:54.911Z,99596.75
2022-12-29T18:26:32.001Z,99587.31
2022-12-29T18:29:02.017Z,99590.72
2022-12-29T18:31:33.529Z,99589.13
2022-12-29T18:34:14.675Z,99585.16
2022-12-29T18:36:45.054Z,99595.88
2022-12-29T18:39:17.359Z,99589.59
2022-12-29T18:41:46.635Z,99586.06
2022-12-29T18:44:15.718Z,99586.69
2022-12-29T18:46:45.236Z,99589.13
2022-12-29T18:49:13.793Z,99581.19
2022-12-29T18:51:42.257Z,99581.97
2022-12-29T18:54:33.766Z,99576.59
2022-12-29T18:57:02.336Z,99576.13
2022-12-29T18:59:30.425Z,99577.00
2022-12-29T19:01:58.725Z,99580.38
2022-12-29T19:04:28.538Z,99578.78
2022-12-29T19:06:59.595Z,99587.19
2022-12-29T19:09:28.919Z,99578.12
2022-12-29T19:11:57.055Z,99577.19
2022-12-29T19:14:25.173Z,99572.06
2022-12-29T19:16:53.644Z,99571.59
2022-12-29T19:19:21.914Z,99576.75
2022-12-29T19:21:50.083Z,99575.41
2022-12-29T19:24:18.576Z,99565.00
2022-12-29T19:26:46.875Z,99571.47
2022-12-29T19:29:18.633Z,99580.38
2022-12-29T19:31:47.140Z,99579.09
2022-12-29T19:34:16.286Z,99578.62
2022-12-29T19:36:45.423Z,99568.56
2022-12-29T19:39:13.976Z,99568.25
2022-12-29T19:41:41.988Z,99570.34
2022-12-29T19:44:10.109Z,99571.91
2022-12-29T19:46:38.615Z,99570.56
2022-12-29T19:49:06.853Z,99569.47
2022-12-29T19:51:34.963Z,99566.81
2022-12-29T19:54:03.558Z,99558.56
2022-12-29T19:56:31.968Z,99557.19
2022-12-29T19:59:00.441Z,99560.28
2022-12-29T20:01:29.108Z,99563.22
2022-12-29T20:03:57.987Z,99556.94
2022-12-29T20:06:26.033Z,99561.34
2022-12-29T20:08:55.756Z,99553.25
2022-12-29T20:11:24.278Z,99559.44
2022-12-29T20:13:52.356Z,99556.47
2022-12-29T20:16:20.722Z,99555.53
2022-12-29T20:18:49.782Z,99562.28
2022-12-29T20:21:20.321Z,99556.81
2022-12-29T20:23:49.146Z,99550.69
2022-12-29T20:26:23.096Z,99556.41
2022-12-29T20:28:51.897Z,99553.59
2022-12-29T20:31:26.270Z,99559.72
2022-12-29T20:33:54.598Z,99556.25
2022-12-29T20:36:28.778Z,99542.72
2022-12-29T20:38:58.560Z,99540.81
2022-12-29T20:41:27.440Z,99547.00
2022-12-29T20:43:55.592Z,99542.81
2022-12-29T20:46:29.845Z,99541.53
2022-12-29T20:49:01.057Z,99547.03
2022-12-29T20:51:59.291Z,99543.09
2022-12-29T20:54:23.050Z,99545.31
2022-12-29T20:56:52.624Z,99541.97
2022-12-29T20:59:29.225Z,99551.47
2022-12-29T21:01:58.377Z,99548.66
2022-12-29T21:04:27.080Z,99546.88
2022-12-29T21:06:55.535Z,99549.16
2022-12-29T21:09:23.746Z,99551.00
2022-12-29T21:11:52.166Z,99548.03
2022-12-29T21:14:20.262Z,99556.00
2022-12-29T21:16:48.596Z,99551.34
2022-12-29T21:19:17.107Z,99548.31
2022-12-29T21:21:45.096Z,99542.19
2022-12-29T21:24:13.175Z,99539.53
2022-12-29T21:26:41.484Z,99541.22
2022-12-29T21:29:12.421Z,99547.22
2022-12-29T21:31:40.546Z,99529.13
2022-12-29T21:34:09.664Z,99532.72
2022-12-29T21:36:38.003Z,99534.75
2022-12-29T21:39:06.214Z,99543.19
2022-12-29T21:41:35.325Z,99539.25
2022-12-29T21:44:21.895Z,99540.25
2022-12-29T21:46:50.430Z,99542.63
2022-12-29T21:49:18.516Z,99545.16
2022-12-29T21:51:54.215Z,99547.81
2022-12-29T21:54:46.842Z,99546.34
2022-12-29T21:57:38.094Z,99554.81
2022-12-29T22:00:28.515Z,99552.97
2022-12-29T22:03:22.535Z,99555.16
2022-12-29T22:06:11.069Z,99555.53
2022-12-29T22:08:58.435Z,99558.53
2022-12-29T22:11:44.703Z,99557.97
2022-12-29T22:14:13.198Z,99570.44
2022-12-29T22:16:41.291Z,99554.19
2022-12-29T22:19:10.864Z,99555.34
2022-12-29T22:21:39.288Z,99547.91
2022-12-29T22:24:08.959Z,99550.47
2022-12-29T22:26:37.250Z,99554.72
2022-12-29T22:29:05.782Z,99548.28
2022-12-29T22:31:34.181Z,99543.69
2022-12-29T22:34:03.424Z,99539.19
2022-12-29T22:36:32.895Z,99536.69
2022-12-29T22:39:01.059Z,99534.13
2022-12-29T22:41:29.152Z,99531.31
2022-12-29T22:43:57.602Z,99523.59
2022-12-29T22:46:25.934Z,99521.94
2022-12-29T22:48:54.080Z,99521.75
2022-12-29T22:51:22.505Z,99522.50
2022-12-29T22:53:51.100Z,99521.91
2022-12-29T22:56:19.373Z,99521.87
2022-12-29T22:58:48.751Z,99525.41
2022-12-29T23:01:19.360Z,99525.44
2022-12-29T23:03:48.730Z,99527.72
2022-12-29T23:06:17.685Z,99531.50
2022-12-29T23:08:47.564Z,99537.84
2022-12-29T23:11:16.508Z,99535.25
2022-12-29T23:13:45.319Z,99537.34
2022-12-29T23:16:15.397Z,99529.97
2022-12-29T23:18:45.366Z,99525.72
2022-12-29T23:21:14.840Z,99525.03
2022-12-29T23:24:04.170Z,99530.25
2022-12-29T23:26:41.315Z,99522.81
2022-12-29T23:29:12.641Z,99521.84
2022-12-29T23:31:41.372Z,99523.91
2022-12-29T23:34:10.985Z,99519.41
2022-12-29T23:36:39.282Z,99512.75
2022-12-29T23:39:11.012Z,99515.31
2022-12-29T23:41:39.373Z,99513.69
2022-12-29T23:44:07.676Z,99507.81
2022-12-29T23:46:37.198Z,99515.63
2022-12-29T23:49:05.654Z,99507.41
2022-12-29T23:51:33.683Z,99506.19
2022-12-29T23:54:02.687Z,99503.75
2022-12-29T23:56:31.249Z,99492.50
2022-12-29T23:58:59.577Z,99497.66
